Time;durP1;ratioP1;P1;durP2;ratioP2;P2;SDS_P1;SDS_P2;PMS_P1;PMS_P2;Temp;Humidity;BMP_temperature;BMP_pressure;BME280_temperature;BME280_humidity;BME280_pressure;Samples;Min_cycle;Max_cycle;Signal;HPM_P1;HPM_P2
2021/06/19 00:00:49;;;;;;;7.03;6.43;;;;;;;;;;1430515;41;20534;-81
2021/06/19 00:01:51;;;;;;;7.00;6.30;;;;;;;;;;1426584;41;20426;-83
2021/06/19 00:02:53;;;;;;;7.20;6.50;;;;;;;;;;1430227;41;20826;-81
2021/06/19 00:03:55;;;;;;;9.48;6.40;;;;;;;;;;1431867;41;20426;-83
2021/06/19 00:04:56;;;;;;;8.13;5.97;;;;;;;;;;1429974;41;20412;-82
2021/06/19 00:05:58;;;;;;;7.30;6.68;;;;;;;;;;1428415;41;20817;-82
2021/06/19 00:07:02;;;;;;;9.13;7.10;;;;;;;;;;1429731;41;20884;-84
2021/06/19 00:08:08;;;;;;;8.95;7.97;;;;;;;;;;1429471;41;20427;-83
2021/06/19 00:09:10;;;;;;;9.02;7.50;;;;;;;;;;1430169;41;20430;-81
2021/06/19 00:10:13;;;;;;;9.57;7.68;;;;;;;;;;1424924;41;20428;-82
2021/06/19 00:11:16;;;;;;;9.13;7.35;;;;;;;;;;1427654;41;20432;-81
2021/06/19 00:12:19;;;;;;;8.95;7.93;;;;;;;;;;1430723;41;20744;-81
2021/06/19 00:13:21;;;;;;;8.10;7.35;;;;;;;;;;1426770;41;20573;-82
2021/06/19 00:14:22;;;;;;;9.27;7.47;;;;;;;;;;1427775;41;20416;-84
2021/06/19 00:15:25;;;;;;;8.55;7.65;;;;;;;;;;1429791;41;20429;-82
2021/06/19 00:16:27;;;;;;;9.68;8.55;;;;;;;;;;1428588;41;20425;-82
2021/06/19 00:17:30;;;;;;;8.90;8.00;;;;;;;;;;1429962;41;20430;-81
2021/06/19 00:18:34;;;;;;;9.13;7.88;;;;;;;;;;1424754;41;20430;-81
2021/06/19 00:19:37;;;;;;;10.35;8.80;;;;;;;;;;1427946;41;20412;-81
2021/06/19 00:20:41;;;;;;;9.97;9.00;;;;;;;;;;1437829;41;20435;-81
2021/06/19 00:21:43;;;;;;;10.73;8.45;;;;;;;;;;1430198;41;20563;-82
2021/06/19 00:22:45;;;;;;;10.32;9.27;;;;;;;;;;1430670;41;20497;-82
2021/06/19 00:23:48;;;;;;;10.30;8.40;;;;;;;;;;1440619;41;20418;-83
2021/06/19 00:24:50;;;;;;;10.30;8.93;;;;;;;;;;1433886;41;20430;-82
2021/06/19 00:25:52;;;;;;;9.57;8.57;;;;;;;;;;1432160;41;20418;-82
2021/06/19 00:26:55;;;;;;;10.38;8.65;;;;;;;;;;1430460;41;20818;-83
2021/06/19 00:27:57;;;;;;;10.13;9.02;;;;;;;;;;1435641;41;20436;-82
2021/06/19 00:28:59;;;;;;;10.68;9.68;;;;;;;;;;1439214;41;20424;-83
2021/06/19 00:30:04;;;;;;;10.77;9.52;;;;;;;;;;1442759;41;20794;-83
2021/06/19 00:31:06;;;;;;;10.40;9.45;;;;;;;;;;1439902;41;20409;-82
2021/06/19 00:32:08;;;;;;;11.38;9.73;;;;;;;;;;1431777;41;20427;-81
2021/06/19 00:33:10;;;;;;;12.63;10.60;;;;;;;;;;1433441;41;20425;-81
2021/06/19 00:34:12;;;;;;;11.88;10.73;;;;;;;;;;1437502;41;20448;-81
2021/06/19 00:35:15;;;;;;;14.95;13.45;;;;;;;;;;1432390;41;20437;-80
2021/06/19 00:36:17;;;;;;;18.08;16.40;;;;;;;;;;1433285;41;20492;-81
2021/06/19 00:37:19;;;;;;;18.30;16.45;;;;;;;;;;1431562;41;21106;-80
2021/06/19 00:38:21;;;;;;;19.75;17.85;;;;;;;;;;1428486;41;20478;-82
2021/06/19 00:39:23;;;;;;;19.97;18.07;;;;;;;;;;1426505;41;20547;-81
2021/06/19 00:40:24;;;;;;;20.73;18.77;;;;;;;;;;1427545;41;20451;-82
2021/06/19 00:41:26;;;;;;;20.52;18.33;;;;;;;;;;1430531;41;20433;-81
2021/06/19 00:42:28;;;;;;;21.05;19.05;;;;;;;;;;1429006;41;20803;-80
2021/06/19 00:43:29;;;;;;;22.08;19.75;;;;;;;;;;1431056;41;20433;-82
2021/06/19 00:44:31;;;;;;;22.40;20.10;;;;;;;;;;1426082;41;20424;-81
2021/06/19 00:45:39;;;;;;;24.05;20.75;;;;;;;;;;1428877;41;20470;-81
2021/06/19 00:46:40;;;;;;;26.42;22.92;;;;;;;;;;1429824;41;20458;-80
2021/06/19 00:47:42;;;;;;;27.17;23.85;;;;;;;;;;1427593;41;20414;-82
2021/06/19 00:48:44;;;;;;;26.50;23.73;;;;;;;;;;1424610;41;20420;-82
2021/06/19 00:49:45;;;;;;;28.00;25.20;;;;;;;;;;1426432;41;20443;-83
2021/06/19 00:50:47;;;;;;;28.92;25.95;;;;;;;;;;1431390;41;20440;-83
2021/06/19 00:51:49;;;;;;;29.80;26.60;;;;;;;;;;1423765;41;20501;-82
2021/06/19 00:52:51;;;;;;;29.98;26.75;;;;;;;;;;1426514;41;20420;-81
2021/06/19 00:53:53;;;;;;;30.77;27.48;;;;;;;;;;1435765;41;20428;-83
2021/06/19 00:54:55;;;;;;;31.40;28.10;;;;;;;;;;1433083;41;20829;-82
2021/06/19 00:55:57;;;;;;;35.50;28.50;;;;;;;;;;1429665;41;20426;-82
2021/06/19 00:56:59;;;;;;;32.60;29.00;;;;;;;;;;1426785;41;20436;-83
2021/06/19 00:58:02;;;;;;;33.17;29.65;;;;;;;;;;1429067;41;20724;-83
2021/06/19 00:59:06;;;;;;;37.25;30.15;;;;;;;;;;1430592;41;20418;-81
2021/06/19 01:00:10;;;;;;;32.83;28.23;;;;;;;;;;1428972;41;20845;-81
2021/06/19 01:01:12;;;;;;;35.28;31.55;;;;;;;;;;1427575;41;20527;-81
2021/06/19 01:02:14;;;;;;;36.40;29.65;;;;;;;;;;1431844;41;20426;-81
2021/06/19 01:03:15;;;;;;;33.28;29.70;;;;;;;;;;1435558;41;20425;-83
2021/06/19 01:04:17;;;;;;;32.25;27.88;;;;;;;;;;1427455;41;20792;-82
2021/06/19 01:05:19;;;;;;;32.20;28.55;;;;;;;;;;1426435;41;20432;-81
2021/06/19 01:06:20;;;;;;;32.42;27.85;;;;;;;;;;1434276;41;20447;-81
2021/06/19 01:07:23;;;;;;;32.97;27.83;;;;;;;;;;1429151;41;20484;-81
2021/06/19 01:08:24;;;;;;;35.60;28.90;;;;;;;;;;1425913;41;20442;-81
2021/06/19 01:09:26;;;;;;;31.58;28.02;;;;;;;;;;1429363;41;20422;-82
2021/06/19 01:10:29;;;;;;;36.10;29.60;;;;;;;;;;1430979;41;20469;-83
2021/06/19 01:11:31;;;;;;;34.03;29.70;;;;;;;;;;1431452;41;20432;-81
2021/06/19 01:12:33;;;;;;;35.80;28.77;;;;;;;;;;1431135;41;20434;-81
2021/06/19 01:13:35;;;;;;;32.60;28.50;;;;;;;;;;1429312;41;20440;-82
2021/06/19 01:14:37;;;;;;;32.97;27.20;;;;;;;;;;1429865;41;20411;-80
2021/06/19 01:15:38;;;;;;;34.25;27.98;;;;;;;;;;1431836;41;20489;-81
2021/06/19 01:16:45;;;;;;;32.10;28.70;;;;;;;;;;1431423;41;20458;-80
2021/06/19 01:17:48;;;;;;;33.13;28.55;;;;;;;;;;1435730;41;20446;-81
2021/06/19 01:18:49;;;;;;;33.30;29.65;;;;;;;;;;1434166;41;20544;-80
2021/06/19 01:20:04;;;;;;;36.70;31.30;;;;;;;;;;1433562;41;20424;-82
2021/06/19 01:21:23;;;;;;;36.08;31.75;;;;;;;;;;1434803;41;20440;-81
2021/06/19 01:22:25;;;;;;;37.22;32.28;;;;;;;;;;1433959;41;21707;-82
2021/06/19 01:23:27;;;;;;;40.97;33.45;;;;;;;;;;1425641;41;20420;-81
2021/06/19 01:24:32;;;;;;;40.65;36.20;;;;;;;;;;1424620;41;20436;-82
2021/06/19 01:25:36;;;;;;;39.03;34.60;;;;;;;;;;1431515;41;21003;-81
2021/06/19 01:26:38;;;;;;;42.13;36.85;;;;;;;;;;1430565;41;20438;-81
2021/06/19 01:27:39;;;;;;;46.10;38.45;;;;;;;;;;1424262;41;20584;-80
2021/06/19 01:28:46;;;;;;;45.45;37.78;;;;;;;;;;1427897;41;20481;-80
2021/06/19 01:29:47;;;;;;;44.30;36.92;;;;;;;;;;1434709;41;20527;-80
2021/06/19 01:30:50;;;;;;;44.83;39.75;;;;;;;;;;1432353;41;20469;-80
2021/06/19 01:31:53;;;;;;;45.38;39.22;;;;;;;;;;1428651;41;20431;-82
2021/06/19 01:32:58;;;;;;;46.60;39.60;;;;;;;;;;1424516;41;20428;-83
2021/06/19 01:34:00;;;;;;;45.70;39.70;;;;;;;;;;1430168;41;20575;-81
2021/06/19 01:35:03;;;;;;;47.08;40.65;;;;;;;;;;1429596;41;20880;-80
2021/06/19 01:36:06;;;;;;;46.70;41.13;;;;;;;;;;1427178;41;20573;-82
2021/06/19 01:37:08;;;;;;;48.58;42.65;;;;;;;;;;1436498;41;20420;-80
2021/06/19 01:38:10;;;;;;;48.50;41.65;;;;;;;;;;1437454;41;20450;-82
2021/06/19 01:39:12;;;;;;;47.13;39.55;;;;;;;;;;1433527;41;20897;-80
2021/06/19 01:40:20;;;;;;;47.03;38.33;;;;;;;;;;1428119;41;20448;-80
2021/06/19 01:41:31;;;;;;;45.17;36.58;;;;;;;;;;1426128;41;20440;-81
2021/06/19 01:42:32;;;;;;;43.58;36.10;;;;;;;;;;1434871;41;20438;-81
2021/06/19 01:43:34;;;;;;;44.17;36.50;;;;;;;;;;1440244;41;20623;-81
2021/06/19 01:44:36;;;;;;;43.28;36.38;;;;;;;;;;1442549;41;20439;-81
2021/06/19 01:45:37;;;;;;;43.38;35.25;;;;;;;;;;1436216;41;20434;-80
2021/06/19 01:46:41;;;;;;;39.22;33.53;;;;;;;;;;1438375;41;20417;-81
2021/06/19 01:47:44;;;;;;;42.30;34.90;;;;;;;;;;1438040;41;20518;-80
2021/06/19 01:48:45;;;;;;;44.03;34.40;;;;;;;;;;1435308;41;20432;-80
2021/06/19 01:49:47;;;;;;;44.17;34.63;;;;;;;;;;1435970;41;20432;-79
2021/06/19 01:50:49;;;;;;;41.90;35.58;;;;;;;;;;1434264;41;20429;-81
2021/06/19 01:51:50;;;;;;;44.78;35.55;;;;;;;;;;1431452;41;20437;-81
2021/06/19 01:52:53;;;;;;;46.30;36.42;;;;;;;;;;1431451;41;20422;-81
2021/06/19 01:53:55;;;;;;;49.00;37.88;;;;;;;;;;1428514;41;20421;-82
2021/06/19 01:54:57;;;;;;;46.63;37.55;;;;;;;;;;1426151;41;20872;-80
2021/06/19 01:55:59;;;;;;;46.22;37.15;;;;;;;;;;1432000;41;20490;-81
2021/06/19 01:57:00;;;;;;;47.42;37.70;;;;;;;;;;1438052;41;20995;-81
2021/06/19 01:58:02;;;;;;;52.03;38.03;;;;;;;;;;1430662;41;20470;-82
2021/06/19 01:59:04;;;;;;;47.80;37.05;;;;;;;;;;1428081;41;20464;-81
2021/06/19 02:00:10;;;;;;;46.85;35.85;;;;;;;;;;1431679;41;20815;-80
2021/06/19 02:01:14;;;;;;;45.70;36.50;;;;;;;;;;1434523;41;20423;-80
2021/06/19 02:02:19;;;;;;;47.70;34.60;;;;;;;;;;1433841;41;20485;-80
2021/06/19 02:03:21;;;;;;;40.15;31.58;;;;;;;;;;1431343;41;20493;-81
2021/06/19 02:04:23;;;;;;;41.63;33.20;;;;;;;;;;1429097;41;20462;-81
2021/06/19 02:05:25;;;;;;;41.78;30.95;;;;;;;;;;1425043;41;20451;-79
2021/06/19 02:06:27;;;;;;;40.87;33.53;;;;;;;;;;1426125;41;20435;-81
2021/06/19 02:07:28;;;;;;;37.45;30.13;;;;;;;;;;1430909;41;20576;-81
2021/06/19 02:08:30;;;;;;;41.50;30.75;;;;;;;;;;1426291;41;20806;-80
2021/06/19 02:09:31;;;;;;;45.70;34.08;;;;;;;;;;1427225;41;20431;-80
2021/06/19 02:10:36;;;;;;;42.65;33.47;;;;;;;;;;1431931;41;20684;-81
2021/06/19 02:11:38;;;;;;;42.10;32.90;;;;;;;;;;1427927;41;20455;-82
2021/06/19 02:12:40;;;;;;;41.77;29.03;;;;;;;;;;1425566;41;20481;-80
2021/06/19 02:13:42;;;;;;;42.22;29.70;;;;;;;;;;1429651;41;20438;-81
2021/06/19 02:14:43;;;;;;;39.30;30.25;;;;;;;;;;1428764;41;20538;-83
2021/06/19 02:15:47;;;;;;;39.10;28.60;;;;;;;;;;1429602;41;20446;-81
2021/06/19 02:16:49;;;;;;;42.05;28.83;;;;;;;;;;1430095;41;20430;-82
2021/06/19 02:17:51;;;;;;;41.95;27.50;;;;;;;;;;1434004;41;21109;-81
2021/06/19 02:18:52;;;;;;;39.60;28.40;;;;;;;;;;1429107;41;20897;-81
2021/06/19 02:19:54;;;;;;;38.85;28.10;;;;;;;;;;1428761;41;20476;-80
2021/06/19 02:20:55;;;;;;;40.78;28.58;;;;;;;;;;1427689;41;20782;-81
2021/06/19 02:21:57;;;;;;;39.65;29.45;;;;;;;;;;1427575;41;20496;-80
2021/06/19 02:22:59;;;;;;;37.95;29.17;;;;;;;;;;1418032;41;20567;-80
2021/06/19 02:24:01;;;;;;;40.13;28.60;;;;;;;;;;1421933;41;20441;-81
2021/06/19 02:25:06;;;;;;;33.72;26.60;;;;;;;;;;1429120;41;20439;-80
2021/06/19 02:26:08;;;;;;;36.22;28.02;;;;;;;;;;1422747;41;20423;-79
2021/06/19 02:27:12;;;;;;;41.22;28.27;;;;;;;;;;1426190;41;20427;-81
2021/06/19 02:28:14;;;;;;;37.40;29.08;;;;;;;;;;1432738;41;20459;-81
2021/06/19 02:29:15;;;;;;;39.28;29.10;;;;;;;;;;1436011;41;20519;-80
2021/06/19 02:30:21;;;;;;;37.83;29.95;;;;;;;;;;1435702;41;20413;-79
2021/06/19 02:31:23;;;;;;;39.65;29.60;;;;;;;;;;1434285;41;20583;-79
2021/06/19 02:32:25;;;;;;;36.75;28.90;;;;;;;;;;1433763;41;20448;-80
2021/06/19 02:33:27;;;;;;;36.67;29.50;;;;;;;;;;1429577;41;20443;-81
2021/06/19 02:34:29;;;;;;;38.22;29.00;;;;;;;;;;1428706;41;20427;-79
2021/06/19 02:35:33;;;;;;;36.83;27.95;;;;;;;;;;1440431;41;20415;-82
2021/06/19 02:36:35;;;;;;;32.55;24.88;;;;;;;;;;1441037;41;20435;-80
2021/06/19 02:37:36;;;;;;;34.20;26.08;;;;;;;;;;1439956;41;20419;-80
2021/06/19 02:38:38;;;;;;;38.53;27.92;;;;;;;;;;1437862;41;20497;-80
2021/06/19 02:39:40;;;;;;;32.72;24.52;;;;;;;;;;1425923;41;20495;-80
2021/06/19 02:40:43;;;;;;;37.17;27.38;;;;;;;;;;1429179;41;20432;-78
2021/06/19 02:41:44;;;;;;;33.13;23.67;;;;;;;;;;1430059;41;20549;-79
2021/06/19 02:42:46;;;;;;;38.05;27.02;;;;;;;;;;1431350;41;20442;-79
2021/06/19 02:43:48;;;;;;;35.63;25.60;;;;;;;;;;1432638;41;20423;-82
2021/06/19 02:44:49;;;;;;;39.37;27.60;;;;;;;;;;1430185;41;20429;-79
2021/06/19 02:45:52;;;;;;;41.10;30.30;;;;;;;;;;1425979;41;20428;-80
2021/06/19 02:46:53;;;;;;;36.28;27.38;;;;;;;;;;1427726;41;20422;-81
2021/06/19 02:47:57;;;;;;;36.40;26.58;;;;;;;;;;1430642;41;20735;-80
2021/06/19 02:48:59;;;;;;;35.88;27.13;;;;;;;;;;1433218;41;20463;-81
2021/06/19 02:50:00;;;;;;;41.63;27.92;;;;;;;;;;1434678;41;20595;-80
2021/06/19 02:51:02;;;;;;;38.42;26.65;;;;;;;;;;1436672;41;20421;-80
2021/06/19 02:52:04;;;;;;;34.42;26.15;;;;;;;;;;1435113;41;20444;-80
2021/06/19 02:53:06;;;;;;;36.88;26.27;;;;;;;;;;1431620;41;20414;-82
2021/06/19 02:54:08;;;;;;;39.33;27.17;;;;;;;;;;1429642;41;20427;-81
2021/06/19 02:55:22;;;;;;;40.38;27.98;;;;;;;;;;1431789;41;20445;-81
2021/06/19 02:56:24;;;;;;;40.92;30.55;;;;;;;;;;1429798;41;20933;-81
2021/06/19 02:57:25;;;;;;;44.65;31.13;;;;;;;;;;1431747;41;20969;-81
2021/06/19 02:58:27;;;;;;;45.20;32.40;;;;;;;;;;1433804;41;20971;-82
2021/06/19 02:59:28;;;;;;;45.38;33.80;;;;;;;;;;1433831;41;20436;-81
2021/06/19 03:00:32;;;;;;;49.15;33.88;;;;;;;;;;1431486;41;21107;-81
2021/06/19 03:01:33;;;;;;;44.65;33.72;;;;;;;;;;1431604;41;20425;-80
2021/06/19 03:02:35;;;;;;;45.30;32.80;;;;;;;;;;1422759;41;20565;-81
2021/06/19 03:03:37;;;;;;;45.88;34.50;;;;;;;;;;1428632;41;20555;-81
2021/06/19 03:04:38;;;;;;;42.83;31.10;;;;;;;;;;1428998;41;20568;-81
2021/06/19 03:05:40;;;;;;;41.50;31.83;;;;;;;;;;1429516;41;20417;-81
2021/06/19 03:06:43;;;;;;;46.10;33.35;;;;;;;;;;1431353;41;20424;-81
2021/06/19 03:07:46;;;;;;;51.27;34.67;;;;;;;;;;1425735;41;20426;-81
2021/06/19 03:08:47;;;;;;;45.03;33.80;;;;;;;;;;1425114;41;20833;-80
2021/06/19 03:09:49;;;;;;;45.72;34.25;;;;;;;;;;1428963;41;20756;-80
2021/06/19 03:10:51;;;;;;;46.65;33.72;;;;;;;;;;1431720;41;20427;-81
2021/06/19 03:11:52;;;;;;;46.80;34.60;;;;;;;;;;1441051;41;20459;-80
2021/06/19 03:12:54;;;;;;;43.70;33.08;;;;;;;;;;1437606;41;20442;-82
2021/06/19 03:13:57;;;;;;;45.58;32.50;;;;;;;;;;1439185;41;20440;-81
2021/06/19 03:14:58;;;;;;;42.58;31.63;;;;;;;;;;1428284;41;20470;-81
2021/06/19 03:16:00;;;;;;;47.75;33.83;;;;;;;;;;1422716;41;20425;-80
2021/06/19 03:17:02;;;;;;;44.22;32.03;;;;;;;;;;1426262;41;20417;-81
2021/06/19 03:18:05;;;;;;;45.28;31.50;;;;;;;;;;1434906;41;20425;-81
2021/06/19 03:19:06;;;;;;;45.70;30.50;;;;;;;;;;1429807;41;20813;-80
2021/06/19 03:20:09;;;;;;;46.20;32.75;;;;;;;;;;1421236;41;20422;-82
2021/06/19 03:21:11;;;;;;;43.85;31.88;;;;;;;;;;1428603;41;20424;-81
2021/06/19 03:22:13;;;;;;;42.63;31.95;;;;;;;;;;1435104;41;20427;-82
2021/06/19 03:23:16;;;;;;;43.53;31.50;;;;;;;;;;1436384;41;20419;-82
2021/06/19 03:24:18;;;;;;;47.80;33.67;;;;;;;;;;1431681;41;20414;-82
2021/06/19 03:25:32;;;;;;;46.97;33.78;;;;;;;;;;1431482;41;20544;-80
2021/06/19 03:26:34;;;;;;;49.38;34.42;;;;;;;;;;1437122;41;20478;-81
2021/06/19 03:27:35;;;;;;;49.80;34.70;;;;;;;;;;1426013;41;20488;-80
2021/06/19 03:28:37;;;;;;;48.97;34.80;;;;;;;;;;1426256;41;20441;-81
2021/06/19 03:29:39;;;;;;;54.47;36.58;;;;;;;;;;1433817;41;20456;-81
2021/06/19 03:30:45;;;;;;;53.15;35.92;;;;;;;;;;1438017;41;20420;-84
2021/06/19 03:31:47;;;;;;;52.35;37.60;;;;;;;;;;1436015;41;21047;-82
2021/06/19 03:32:49;;;;;;;57.83;39.30;;;;;;;;;;1432564;41;20420;-79
2021/06/19 03:33:51;;;;;;;51.58;36.75;;;;;;;;;;1436215;41;20541;-81
2021/06/19 03:34:53;;;;;;;50.00;36.97;;;;;;;;;;1430969;41;20545;-82
2021/06/19 03:35:54;;;;;;;51.10;36.95;;;;;;;;;;1425777;41;20462;-82
2021/06/19 03:37:00;;;;;;;51.15;36.38;;;;;;;;;;1430075;41;20558;-80
2021/06/19 03:38:05;;;;;;;51.65;37.47;;;;;;;;;;1431589;41;20909;-81
2021/06/19 03:39:07;;;;;;;49.30;35.20;;;;;;;;;;1421053;41;20434;-81
2021/06/19 03:40:09;;;;;;;53.72;36.90;;;;;;;;;;1420170;41;20710;-83
2021/06/19 03:41:11;;;;;;;53.72;36.45;;;;;;;;;;1427181;41;20439;-81
2021/06/19 03:42:13;;;;;;;50.45;36.65;;;;;;;;;;1429010;41;20541;-82
2021/06/19 03:43:14;;;;;;;52.63;36.47;;;;;;;;;;1428965;41;20470;-81
2021/06/19 03:44:16;;;;;;;50.72;34.78;;;;;;;;;;1430126;41;20438;-82
2021/06/19 03:45:19;;;;;;;51.95;33.53;;;;;;;;;;1426681;41;20439;-82
2021/06/19 03:46:21;;;;;;;48.60;32.97;;;;;;;;;;1425308;41;20438;-81
2021/06/19 03:47:23;;;;;;;50.40;34.85;;;;;;;;;;1422386;41;20521;-81
2021/06/19 03:48:24;;;;;;;47.67;32.80;;;;;;;;;;1428735;41;20443;-81
2021/06/19 03:49:26;;;;;;;48.42;33.55;;;;;;;;;;1423630;41;20421;-80
2021/06/19 03:50:28;;;;;;;47.95;33.30;;;;;;;;;;1425745;41;20509;-80
2021/06/19 03:51:32;;;;;;;48.53;34.03;;;;;;;;;;1429312;41;20446;-81
2021/06/19 03:52:34;;;;;;;51.70;34.47;;;;;;;;;;1425679;41;20909;-83
2021/06/19 03:53:35;;;;;;;49.97;35.33;;;;;;;;;;1426813;41;20491;-81
2021/06/19 03:54:41;;;;;;;51.22;34.50;;;;;;;;;;1429958;41;20489;-81
2021/06/19 03:55:42;;;;;;;47.88;33.20;;;;;;;;;;1429548;41;20438;-81
2021/06/19 03:56:44;;;;;;;44.47;32.25;;;;;;;;;;1435741;41;20560;-81
2021/06/19 03:57:46;;;;;;;46.08;32.33;;;;;;;;;;1433261;41;20420;-81
2021/06/19 03:58:48;;;;;;;45.08;32.67;;;;;;;;;;1428103;41;20433;-81
2021/06/19 03:59:49;;;;;;;46.53;32.57;;;;;;;;;;1426157;41;20543;-80
2021/06/19 04:00:51;;;;;;;43.88;30.90;;;;;;;;;;1431917;41;21052;-82
2021/06/19 04:01:53;;;;;;;50.17;33.05;;;;;;;;;;1438037;41;20518;-81
2021/06/19 04:02:55;;;;;;;45.83;32.55;;;;;;;;;;1429358;41;20958;-82
2021/06/19 04:03:57;;;;;;;43.63;30.85;;;;;;;;;;1429591;41;20414;-83
2021/06/19 04:04:59;;;;;;;38.13;29.30;;;;;;;;;;1433929;41;20804;-81
2021/06/19 04:06:04;;;;;;;41.10;30.70;;;;;;;;;;1436013;41;20425;-81
2021/06/19 04:07:06;;;;;;;41.95;32.50;;;;;;;;;;1430029;41;20466;-80
2021/06/19 04:08:08;;;;;;;43.33;31.40;;;;;;;;;;1430508;41;20411;-81
2021/06/19 04:09:10;;;;;;;46.50;32.15;;;;;;;;;;1436376;41;20439;-81
2021/06/19 04:10:13;;;;;;;42.67;32.05;;;;;;;;;;1430730;41;20460;-82
2021/06/19 04:11:15;;;;;;;45.65;31.08;;;;;;;;;;1430509;41;20462;-81
2021/06/19 04:12:17;;;;;;;44.33;33.45;;;;;;;;;;1434870;41;20445;-80
2021/06/19 04:13:19;;;;;;;45.67;33.40;;;;;;;;;;1435619;41;20413;-79
2021/06/19 04:14:21;;;;;;;45.88;33.33;;;;;;;;;;1434281;41;20767;-80
2021/06/19 04:15:23;;;;;;;51.50;33.65;;;;;;;;;;1428081;41;20415;-80
2021/06/19 04:16:24;;;;;;;50.58;33.72;;;;;;;;;;1426197;41;20432;-79
2021/06/19 04:17:26;;;;;;;51.40;35.03;;;;;;;;;;1426172;41;20861;-79
2021/06/19 04:18:28;;;;;;;51.65;34.13;;;;;;;;;;1437446;41;20423;-81
2021/06/19 04:19:29;;;;;;;52.30;35.20;;;;;;;;;;1434677;41;20478;-82
2021/06/19 04:20:31;;;;;;;50.85;35.58;;;;;;;;;;1430355;41;20436;-82
2021/06/19 04:21:33;;;;;;;49.40;34.72;;;;;;;;;;1434738;41;20430;-80
2021/06/19 04:22:35;;;;;;;50.25;34.35;;;;;;;;;;1442700;41;20478;-81
2021/06/19 04:23:37;;;;;;;49.03;35.00;;;;;;;;;;1440469;41;20423;-79
2021/06/19 04:24:39;;;;;;;51.08;34.63;;;;;;;;;;1439765;41;20428;-80
2021/06/19 04:25:40;;;;;;;46.63;33.67;;;;;;;;;;1440669;41;20439;-81
2021/06/19 04:26:42;;;;;;;47.47;33.80;;;;;;;;;;1432352;41;20456;-80
2021/06/19 04:27:53;;;;;;;47.38;34.03;;;;;;;;;;1434101;41;20491;-80
2021/06/19 04:28:55;;;;;;;47.55;33.70;;;;;;;;;;1440099;41;20432;-81
2021/06/19 04:29:56;;;;;;;47.95;32.53;;;;;;;;;;1439664;41;20457;-81
2021/06/19 04:31:00;;;;;;;53.72;34.65;;;;;;;;;;1436795;41;20416;-80
2021/06/19 04:32:08;;;;;;;48.60;33.22;;;;;;;;;;1435235;41;20875;-80
2021/06/19 04:33:10;;;;;;;50.45;33.17;;;;;;;;;;1437020;41;20425;-81
2021/06/19 04:34:11;;;;;;;50.75;32.70;;;;;;;;;;1434088;41;20456;-82
2021/06/19 04:35:14;;;;;;;50.22;34.47;;;;;;;;;;1426680;41;20822;-81
2021/06/19 04:36:17;;;;;;;49.08;33.17;;;;;;;;;;1432563;41;20515;-81
2021/06/19 04:37:18;;;;;;;45.20;32.97;;;;;;;;;;1434578;41;20421;-80
2021/06/19 04:38:20;;;;;;;46.88;32.35;;;;;;;;;;1436701;41;20463;-82
2021/06/19 04:39:22;;;;;;;46.60;32.47;;;;;;;;;;1432564;41;20484;-81
2021/06/19 04:40:49;;;;;;;48.60;34.13;;;;;;;;;;1433087;41;20505;-80
2021/06/19 04:42:03;;;;;;;44.58;32.30;;;;;;;;;;1436575;41;20426;-81
2021/06/19 04:43:10;;;;;;;50.80;33.75;;;;;;;;;;1437661;41;20498;-82
2021/06/19 04:45:29;;;;;;;43.53;31.42;;;;;;;;;;1433156;41;20478;-81
2021/06/19 04:46:32;;;;;;;43.80;31.40;;;;;;;;;;1428979;41;20442;-81
2021/06/19 04:47:34;;;;;;;44.42;31.55;;;;;;;;;;1423308;41;20957;-80
2021/06/19 04:48:36;;;;;;;41.17;30.05;;;;;;;;;;1431321;41;20488;-81
2021/06/19 04:49:38;;;;;;;41.03;30.38;;;;;;;;;;1436846;41;21001;-82
2021/06/19 04:50:39;;;;;;;38.15;29.20;;;;;;;;;;1437840;41;20427;-81
2021/06/19 04:51:41;;;;;;;37.83;29.63;;;;;;;;;;1429821;41;20924;-80
2021/06/19 04:52:45;;;;;;;35.50;27.17;;;;;;;;;;1427533;41;20447;-82
2021/06/19 04:53:47;;;;;;;36.70;28.00;;;;;;;;;;1430261;41;20821;-81
2021/06/19 04:54:50;;;;;;;32.92;25.60;;;;;;;;;;1432146;41;20421;-82
2021/06/19 04:55:51;;;;;;;31.13;24.55;;;;;;;;;;1425550;41;20463;-80
2021/06/19 04:56:55;;;;;;;29.52;25.27;;;;;;;;;;1425313;41;20493;-82
2021/06/19 04:57:58;;;;;;;31.43;25.40;;;;;;;;;;1430484;41;20600;-81
2021/06/19 04:59:00;;;;;;;29.42;25.55;;;;;;;;;;1433917;41;20428;-81
2021/06/19 05:00:02;;;;;;;34.47;25.05;;;;;;;;;;1435423;41;20418;-82
2021/06/19 05:01:04;;;;;;;28.42;24.27;;;;;;;;;;1437301;41;20430;-81
2021/06/19 05:02:06;;;;;;;26.10;23.23;;;;;;;;;;1429407;41;20422;-82
2021/06/19 05:03:08;;;;;;;25.83;23.05;;;;;;;;;;1430217;41;20949;-82
2021/06/19 05:04:09;;;;;;;28.63;25.58;;;;;;;;;;1435872;41;20425;-83
2021/06/19 05:05:11;;;;;;;28.13;25.13;;;;;;;;;;1428687;41;21007;-82
2021/06/19 05:06:13;;;;;;;30.45;25.40;;;;;;;;;;1427926;41;20450;-80
2021/06/19 05:07:14;;;;;;;27.67;24.50;;;;;;;;;;1430475;41;20466;-80
2021/06/19 05:08:17;;;;;;;31.58;25.65;;;;;;;;;;1435370;41;20431;-82
2021/06/19 05:09:18;;;;;;;28.40;25.48;;;;;;;;;;1436157;41;20423;-81
2021/06/19 05:10:20;;;;;;;27.65;24.60;;;;;;;;;;1436624;41;20415;-82
2021/06/19 05:11:22;;;;;;;26.95;23.50;;;;;;;;;;1433671;41;20417;-82
2021/06/19 05:12:24;;;;;;;26.77;24.05;;;;;;;;;;1433704;41;20433;-81
2021/06/19 05:13:26;;;;;;;29.30;24.97;;;;;;;;;;1432936;41;20427;-81
2021/06/19 05:14:28;;;;;;;26.98;23.88;;;;;;;;;;1429374;41;20464;-81
2021/06/19 05:15:30;;;;;;;26.30;23.67;;;;;;;;;;1432150;41;20658;-80
2021/06/19 05:16:31;;;;;;;27.60;24.73;;;;;;;;;;1434094;41;20438;-79
2021/06/19 05:17:33;;;;;;;29.23;24.45;;;;;;;;;;1435885;41;20441;-82
2021/06/19 05:18:34;;;;;;;26.70;23.85;;;;;;;;;;1438993;41;20438;-81
2021/06/19 05:19:36;;;;;;;26.40;22.35;;;;;;;;;;1428846;41;20522;-80
2021/06/19 05:20:38;;;;;;;23.50;21.30;;;;;;;;;;1430891;41;20417;-81
2021/06/19 05:21:40;;;;;;;21.77;19.67;;;;;;;;;;1429618;41;20531;-81
2021/06/19 05:22:42;;;;;;;22.50;20.20;;;;;;;;;;1428886;41;20718;-82
2021/06/19 05:23:43;;;;;;;23.50;21.00;;;;;;;;;;1436588;41;20453;-81
2021/06/19 05:24:45;;;;;;;22.55;20.33;;;;;;;;;;1430885;41;20413;-81
2021/06/19 05:25:46;;;;;;;22.50;20.45;;;;;;;;;;1425064;41;20432;-80
2021/06/19 05:26:48;;;;;;;22.47;20.30;;;;;;;;;;1421551;41;20529;-82
2021/06/19 05:27:50;;;;;;;21.13;19.17;;;;;;;;;;1428985;41;20458;-82
2021/06/19 05:28:51;;;;;;;21.10;19.08;;;;;;;;;;1433840;41;20421;-83
2021/06/19 05:29:53;;;;;;;21.33;19.33;;;;;;;;;;1423953;41;20594;-80
2021/06/19 05:30:55;;;;;;;21.10;19.17;;;;;;;;;;1428699;41;20418;-82
2021/06/19 05:31:58;;;;;;;22.23;20.02;;;;;;;;;;1426607;41;20408;-81
2021/06/19 05:33:00;;;;;;;22.65;20.33;;;;;;;;;;1430217;41;20829;-81
2021/06/19 05:34:01;;;;;;;21.67;19.70;;;;;;;;;;1433434;41;20425;-82
2021/06/19 05:35:04;;;;;;;21.63;19.67;;;;;;;;;;1432536;41;20464;-81
2021/06/19 05:36:06;;;;;;;21.38;19.48;;;;;;;;;;1429485;41;20453;-80
2021/06/19 05:37:10;;;;;;;21.83;19.70;;;;;;;;;;1429220;41;20470;-80
2021/06/19 05:38:12;;;;;;;22.35;20.15;;;;;;;;;;1429144;41;20512;-81
2021/06/19 05:39:13;;;;;;;22.98;20.75;;;;;;;;;;1425832;41;20706;-81
2021/06/19 05:40:15;;;;;;;22.20;20.13;;;;;;;;;;1422063;41;20939;-81
2021/06/19 05:41:17;;;;;;;21.52;19.52;;;;;;;;;;1425359;41;20412;-83
2021/06/19 05:42:19;;;;;;;20.38;18.48;;;;;;;;;;1436190;41;20537;-80
2021/06/19 05:43:20;;;;;;;21.23;19.13;;;;;;;;;;1436030;41;21008;-81
2021/06/19 05:44:22;;;;;;;20.77;18.77;;;;;;;;;;1432496;41;20428;-83
2021/06/19 05:45:24;;;;;;;21.40;19.33;;;;;;;;;;1427561;41;20433;-79
2021/06/19 05:46:26;;;;;;;20.80;18.73;;;;;;;;;;1431453;41;20421;-81
2021/06/19 05:47:28;;;;;;;19.75;17.98;;;;;;;;;;1437479;41;20427;-82
2021/06/19 05:48:29;;;;;;;19.93;18.13;;;;;;;;;;1438382;41;20416;-82
2021/06/19 05:49:31;;;;;;;20.67;18.83;;;;;;;;;;1436521;41;20436;-83
2021/06/19 05:50:32;;;;;;;18.98;17.48;;;;;;;;;;1432845;41;20557;-81
2021/06/19 05:51:34;;;;;;;18.67;17.08;;;;;;;;;;1437090;41;20471;-82
2021/06/19 05:52:36;;;;;;;18.80;17.15;;;;;;;;;;1438586;41;20433;-82
2021/06/19 05:53:38;;;;;;;19.13;17.52;;;;;;;;;;1439379;41;20734;-84
2021/06/19 05:54:40;;;;;;;19.88;18.17;;;;;;;;;;1443501;41;20653;-82
2021/06/19 05:55:41;;;;;;;19.38;17.67;;;;;;;;;;1439746;41;20409;-83
2021/06/19 05:56:43;;;;;;;17.20;15.73;;;;;;;;;;1434835;41;20425;-83
2021/06/19 05:57:45;;;;;;;16.42;15.02;;;;;;;;;;1432931;41;20422;-82
2021/06/19 05:58:47;;;;;;;17.30;15.57;;;;;;;;;;1435947;41;20553;-83
2021/06/19 05:59:49;;;;;;;16.23;14.88;;;;;;;;;;1429665;41;20430;-81
2021/06/19 06:00:50;;;;;;;17.13;15.65;;;;;;;;;;1426705;41;20471;-81
2021/06/19 06:01:52;;;;;;;17.10;15.63;;;;;;;;;;1431431;41;20906;-81
2021/06/19 06:02:54;;;;;;;18.23;16.60;;;;;;;;;;1430545;41;20422;-80
2021/06/19 06:03:56;;;;;;;17.50;15.73;;;;;;;;;;1431198;41;20865;-82
2021/06/19 06:04:57;;;;;;;17.50;16.05;;;;;;;;;;1431453;41;20484;-80
2021/06/19 06:05:59;;;;;;;17.30;15.82;;;;;;;;;;1437064;41;20423;-82